Time;durP1;ratioP1;P1;durP2;ratioP2;P2;SDS_P1;SDS_P2;PMS_P1;PMS_P2;Temp;Humidity;BMP_temperature;BMP_pressure;BME280_temperature;BME280_humidity;BME280_pressure;Samples;Min_cycle;Max_cycle;Signal;HPM_P1;HPM_P2
2021/11/17 02:28:11;;;;;;;4.78;2.33;;;10.10;97.60;;;;;;4969512;28;20122;-47
2021/11/17 02:31:08;;;;;;;3.63;2.03;;;10.00;97.50;;;;;;4988222;28;20038;-47
2021/11/17 02:33:46;;;;;;;3.80;2.53;;;10.00;97.50;;;;;;4988734;28;20461;-47
2021/11/17 02:36:23;;;;;;;7.07;2.47;;;10.00;97.50;;;;;;4987414;28;20062;-47
2021/11/17 02:39:07;;;;;;;6.25;2.80;;;10.00;97.60;;;;;;4988571;28;20087;-48
2021/11/17 02:41:41;;;;;;;4.10;2.05;;;10.00;97.50;;;;;;4987912;28;20809;-47
2021/11/17 02:44:36;;;;;;;5.53;2.65;;;10.00;97.50;;;;;;5005487;28;20033;-47
2021/11/17 02:47:10;;;;;;;5.05;2.42;;;10.00;97.50;;;;;;5009735;28;20129;-47
2021/11/17 02:49:54;;;;;;;3.38;2.35;;;10.00;97.50;;;;;;5012214;28;20072;-47
2021/11/17 02:52:22;;;;;;;4.07;2.15;;;10.00;97.50;;;;;;5014626;28;20441;-47
2021/11/17 02:55:24;;;;;;;3.92;2.20;;;10.00;97.50;;;;;;5014693;28;20037;-47
2021/11/17 02:58:13;;;;;;;6.15;2.80;;;10.00;97.50;;;;;;5014004;28;20033;-47
2021/11/17 03:01:00;;;;;;;5.15;2.55;;;10.00;97.50;;;;;;5011274;28;20045;-48
2021/11/17 03:03:52;;;;;;;2.50;2.10;;;10.00;97.50;;;;;;5014513;28;20080;-48
2021/11/17 03:06:27;;;;;;;4.38;1.90;;;10.00;97.50;;;;;;5012937;28;20022;-47
2021/11/17 03:08:58;;;;;;;5.45;2.83;;;10.00;97.50;;;;;;5014471;28;20060;-47
2021/11/17 03:11:36;;;;;;;2.95;2.25;;;10.00;97.50;;;;;;5013608;28;20109;-47
2021/11/17 03:14:09;;;;;;;3.35;2.22;;;10.00;97.50;;;;;;5013254;28;20026;-47
2021/11/17 03:16:58;;;;;;;3.50;2.13;;;10.00;97.50;;;;;;5013194;28;20022;-47
2021/11/17 03:19:27;;;;;;;4.78;2.60;;;10.00;97.50;;;;;;5010511;28;20343;-47
2021/11/17 03:22:34;;;;;;;3.13;2.08;;;10.00;97.50;;;;;;5013796;28;20030;-47
2021/11/17 03:25:11;;;;;;;3.45;2.22;;;10.00;97.50;;;;;;4990868;28;20085;-47
2021/11/17 03:27:50;;;;;;;2.95;2.20;;;10.00;97.50;;;;;;4991281;28;20470;-47
2021/11/17 03:30:46;;;;;;;2.35;1.92;;;10.00;97.50;;;;;;4990606;28;20030;-47
2021/11/17 03:33:36;;;;;;;2.72;2.10;;;10.00;97.50;;;;;;4991361;28;20038;-47
2021/11/17 03:36:23;;;;;;;4.43;1.95;;;10.00;97.40;;;;;;4990497;28;20253;-47
2021/11/17 03:39:00;;;;;;;2.10;1.70;;;10.00;97.40;;;;;;4991367;28;20058;-47
2021/11/17 03:41:41;;;;;;;2.67;2.22;;;10.00;97.50;;;;;;4990918;28;20113;-47
2021/11/17 03:44:30;;;;;;;3.70;1.70;;;10.10;97.50;;;;;;4982881;28;20030;-47
2021/11/17 03:47:25;;;;;;;4.60;2.15;;;10.00;97.40;;;;;;4990362;28;20053;-47
2021/11/17 03:50:06;;;;;;;4.20;1.80;;;10.00;97.40;;;;;;4990580;28;20047;-47
2021/11/17 03:52:38;;;;;;;;;;;10.00;97.40;;;;;;4986728;28;20652;-47
2021/11/17 03:55:09;;;;;;;2.67;1.60;;;10.00;97.40;;;;;;4988861;28;19914;-47
2021/11/17 03:57:47;;;;;;;2.70;1.65;;;10.00;97.80;;;;;;4990566;28;20062;-47
2021/11/17 04:00:38;;;;;;;1.45;1.30;;;10.00;97.40;;;;;;5006152;28;20045;-47
2021/11/17 04:03:39;;;;;;;1.40;1.27;;;10.00;97.40;;;;;;4998017;28;20461;-47
2021/11/17 04:06:05;;;;;;;3.42;1.85;;;10.00;97.40;;;;;;5000258;28;20537;-47
2021/11/17 04:08:46;;;;;;;3.05;1.83;;;10.00;97.40;;;;;;5013225;28;20093;-47
2021/11/17 04:11:30;;;;;;;2.65;1.75;;;10.00;97.40;;;;;;5013196;28;20038;-47
2021/11/17 04:14:01;;;;;;;1.92;1.77;;;10.00;97.40;;;;;;5011879;28;20034;-48
2021/11/17 04:16:41;;;;;;;4.07;1.70;;;10.00;97.40;;;;;;5012219;28;20026;-47
2021/11/17 04:19:09;;;;;;;3.13;2.45;;;10.00;97.40;;;;;;5012641;28;20653;-47
2021/11/17 04:21:50;;;;;;;7.05;1.75;;;10.00;97.30;;;;;;5012751;28;20053;-47
2021/11/17 04:25:04;;;;;;;3.53;2.00;;;10.00;97.40;;;;;;5011259;28;20022;-47
2021/11/17 04:28:11;;;;;;;4.80;1.77;;;10.00;97.30;;;;;;4989822;28;20484;-47
2021/11/17 04:30:58;;;;;;;3.72;1.92;;;10.00;97.40;;;;;;4989393;28;20062;-47
2021/11/17 04:33:29;;;;;;;2.75;1.95;;;10.00;97.30;;;;;;4990115;28;20058;-47
2021/11/17 04:36:07;;;;;;;2.95;1.40;;;10.00;97.40;;;;;;4988964;28;20036;-47
2021/11/17 04:38:51;;;;;;;2.15;1.70;;;10.00;97.30;;;;;;4989910;28;20034;-47
2021/11/17 04:41:32;;;;;;;5.20;1.95;;;10.00;97.30;;;;;;4990057;28;20035;-47
2021/11/17 04:44:18;;;;;;;2.28;1.70;;;10.00;97.30;;;;;;4989628;28;20045;-47
2021/11/17 04:46:56;;;;;;;3.72;1.83;;;10.00;97.30;;;;;;4989288;28;20041;-47
2021/11/17 04:49:31;;;;;;;2.20;1.50;;;10.00;97.30;;;;;;4989613;28;20703;-47
2021/11/17 04:52:09;;;;;;;2.40;1.80;;;10.00;97.30;;;;;;4990063;28;20056;-47
2021/11/17 04:54:42;;;;;;;3.72;1.65;;;10.00;97.30;;;;;;4989656;28;20069;-47
2021/11/17 04:57:10;;;;;;;2.80;1.85;;;10.00;97.30;;;;;;4988542;28;20034;-47
2021/11/17 04:59:54;;;;;;;3.72;1.92;;;10.00;97.30;;;;;;4988706;28;20026;-47
2021/11/17 05:02:43;;;;;;;4.72;1.58;;;10.00;97.30;;;;;;4989719;28;20031;-47
2021/11/17 05:05:15;;;;;;;4.07;2.00;;;10.00;97.30;;;;;;4991432;28;20035;-47
2021/11/17 05:08:19;;;;;;;2.08;1.55;;;10.00;97.30;;;;;;5011809;28;20037;-47
2021/11/17 05:10:54;;;;;;;3.40;1.88;;;10.00;97.30;;;;;;5001366;28;20125;-47
2021/11/17 05:13:39;;;;;;;3.38;2.00;;;10.00;97.30;;;;;;5011246;28;20032;-47
2021/11/17 05:16:11;;;;;;;3.00;1.88;;;10.00;97.30;;;;;;5008843;28;20338;-47
2021/11/17 05:18:43;;;;;;;3.08;1.90;;;10.00;97.30;;;;;;5011599;28;20101;-47
2021/11/17 05:21:35;;;;;;;5.22;1.60;;;10.00;97.30;;;;;;5011581;28;20045;-47
2021/11/17 05:24:10;;;;;;;3.20;1.95;;;10.00;97.30;;;;;;5011562;28;20037;-47
2021/11/17 05:27:04;;;;;;;3.25;1.85;;;10.00;97.30;;;;;;5010700;28;20018;-47
2021/11/17 05:29:51;;;;;;;1.73;1.50;;;10.00;97.30;;;;;;5011299;28;20029;-47
2021/11/17 05:32:40;;;;;;;3.35;1.75;;;10.00;97.30;;;;;;5011626;28;20033;-47
2021/11/17 05:35:33;;;;;;;3.75;2.42;;;10.00;97.30;;;;;;5011029;28;20141;-47
2021/11/17 05:38:18;;;;;;;3.53;2.00;;;10.00;97.30;;;;;;5011613;28;20109;-47
2021/11/17 05:41:15;;;;;;;2.38;1.52;;;10.00;97.30;;;;;;5010947;28;20030;-48
2021/11/17 05:43:56;;;;;;;3.03;1.92;;;10.00;97.30;;;;;;5011692;28;20030;-48
2021/11/17 05:46:28;;;;;;;2.35;1.80;;;10.00;97.30;;;;;;5010246;28;20037;-48
2021/11/17 05:49:11;;;;;;;2.80;1.90;;;10.00;97.30;;;;;;5021725;28;20030;-47
2021/11/17 05:51:46;;;;;;;2.75;1.63;;;10.00;97.30;;;;;;5030345;28;20353;-47
2021/11/17 05:54:25;;;;;;;2.42;1.67;;;10.00;97.30;;;;;;5031191;28;20025;-47
2021/11/17 05:57:06;;;;;;;2.83;1.80;;;10.00;97.20;;;;;;5030220;28;20491;-48
2021/11/17 06:00:21;;;;;;;2.72;1.70;;;10.00;97.20;;;;;;5031261;28;20033;-47
2021/11/17 06:03:30;;;;;;;2.80;1.83;;;10.00;97.30;;;;;;4950015;29;20036;-47
2021/11/17 06:05:55;;;;;;;3.10;2.05;;;10.00;97.30;;;;;;4950864;28;20043;-47
2021/11/17 06:08:20;;;;;;;2.22;1.77;;;10.00;97.20;;;;;;4968655;28;20363;-48
2021/11/17 06:10:49;;;;;;;3.97;1.70;;;10.00;97.10;;;;;;4969285;28;20068;-48
2021/11/17 06:13:16;;;;;;;2.67;1.67;;;10.00;97.00;;;;;;4969285;28;20043;-48
2021/11/17 06:15:43;;;;;;;2.22;1.48;;;10.00;97.00;;;;;;4967365;28;20049;-48
2021/11/17 06:18:13;;;;;;;2.90;1.85;;;10.00;97.00;;;;;;4969120;28;20027;-47
2021/11/17 06:20:39;;;;;;;2.63;2.05;;;10.00;97.00;;;;;;4968992;28;20039;-48
2021/11/17 06:23:10;;;;;;;3.35;1.98;;;10.00;97.00;;;;;;4974159;28;20036;-48
2021/11/17 06:25:37;;;;;;;;;;;10.00;97.00;;;;;;4989790;28;20069;-47
2021/11/17 06:28:04;;;;;;;2.70;1.88;;;10.00;97.00;;;;;;4992407;28;19960;-48
2021/11/17 06:30:34;;;;;;;4.15;1.80;;;10.00;97.00;;;;;;4986169;28;20058;-47
2021/11/17 06:33:00;;;;;;;4.22;1.77;;;10.00;97.10;;;;;;4987952;28;20465;-47
2021/11/17 06:35:25;;;;;;;2.50;1.48;;;10.00;97.10;;;;;;5013872;28;20029;-47
2021/11/17 06:37:51;;;;;;;4.40;1.60;;;10.00;97.10;;;;;;5014340;28;20014;-47
2021/11/17 06:40:18;;;;;;;2.47;1.52;;;10.00;97.10;;;;;;5014543;28;20029;-47
2021/11/17 06:42:53;;;;;;;3.08;2.20;;;10.00;97.10;;;;;;5014399;28;20088;-47
2021/11/17 06:45:33;;;;;;;3.70;1.52;;;10.00;97.10;;;;;;5012833;28;20563;-47
2021/11/17 06:47:59;;;;;;;2.63;1.85;;;10.00;97.10;;;;;;5014685;28;20082;-47
2021/11/17 06:50:25;;;;;;;2.53;1.92;;;10.00;97.10;;;;;;5014547;28;20068;-47
2021/11/17 06:52:51;;;;;;;5.38;1.73;;;10.00;97.10;;;;;;5014135;28;20050;-47
2021/11/17 06:55:18;;;;;;;3.05;1.90;;;10.00;97.10;;;;;;5013737;28;20096;-47
2021/11/17 06:57:45;;;;;;;2.20;1.60;;;10.00;97.10;;;;;;5013684;28;20025;-47
2021/11/17 07:00:14;;;;;;;3.72;2.08;;;10.00;97.10;;;;;;5013610;28;20113;-47
2021/11/17 07:02:40;;;;;;;5.40;2.50;;;10.00;97.10;;;;;;5013822;28;20100;-47
2021/11/17 07:05:07;;;;;;;2.28;1.58;;;10.00;97.10;;;;;;5013190;28;20030;-47
2021/11/17 07:07:33;;;;;;;3.90;2.00;;;10.00;97.10;;;;;;5013799;28;20030;-47
2021/11/17 07:09:58;;;;;;;2.53;1.80;;;10.00;97.10;;;;;;5013941;28;20129;-47
2021/11/17 07:12:24;;;;;;;3.50;1.95;;;10.00;97.10;;;;;;5013591;28;20032;-47
2021/11/17 07:14:50;;;;;;;3.33;1.50;;;10.00;97.10;;;;;;5013955;28;20022;-47
2021/11/17 07:17:17;;;;;;;4.68;1.92;;;10.00;97.20;;;;;;5012091;28;20030;-47
2021/11/17 07:19:43;;;;;;;3.42;1.65;;;10.00;97.10;;;;;;5014046;28;20058;-47
2021/11/17 07:22:09;;;;;;;4.22;2.10;;;10.00;97.20;;;;;;5013475;28;20620;-47
2021/11/17 07:24:36;;;;;;;2.08;1.45;;;10.00;97.20;;;;;;5013979;28;20369;-47
2021/11/17 07:27:03;;;;;;;3.08;1.88;;;10.00;97.20;;;;;;5013197;28;20330;-47
2021/11/17 07:29:29;;;;;;;1.80;1.17;;;10.00;97.20;;;;;;5013200;28;20137;-47
2021/11/17 07:31:56;;;;;;;1.50;1.23;;;10.00;97.20;;;;;;5013143;28;20034;-47
2021/11/17 07:34:21;;;;;;;2.50;1.35;;;10.00;97.20;;;;;;5013689;28;20275;-47
2021/11/17 07:36:48;;;;;;;3.33;1.30;;;10.00;97.20;;;;;;5012406;28;20034;-47
2021/11/17 07:39:15;;;;;;;3.42;1.80;;;10.00;97.20;;;;;;5013176;28;20072;-47
2021/11/17 07:41:47;;;;;;;3.30;1.60;;;10.00;97.20;;;;;;5012707;28;20121;-47
2021/11/17 07:44:16;;;;;;;2.03;1.17;;;10.00;97.20;;;;;;5013287;28;20438;-47
2021/11/17 07:46:43;;;;;;;1.88;1.40;;;10.00;97.20;;;;;;5011613;28;20042;-47
2021/11/17 07:49:08;;;;;;;8.48;1.38;;;10.00;97.20;;;;;;5013617;28;20105;-47
2021/11/17 07:51:34;;;;;;;1.63;1.20;;;10.00;97.20;;;;;;5013007;28;20444;-47
2021/11/17 07:54:00;;;;;;;2.15;1.30;;;10.00;97.20;;;;;;5013042;28;20526;-47
2021/11/17 07:56:25;;;;;;;2.88;1.40;;;10.00;97.20;;;;;;5011128;28;20037;-47
2021/11/17 07:58:51;;;;;;;1.20;1.10;;;10.00;97.20;;;;;;5013516;28;20084;-47
2021/11/17 08:01:17;;;;;;;4.22;1.50;;;10.00;97.30;;;;;;5012295;28;20042;-47
2021/11/17 08:03:45;;;;;;;6.70;1.67;;;10.00;97.30;;;;;;5013031;28;20148;-47
2021/11/17 08:06:14;;;;;;;4.03;1.80;;;10.00;97.30;;;;;;5012156;28;20053;-47
2021/11/17 08:08:40;;;;;;;1.63;1.27;;;10.00;97.30;;;;;;5012898;28;20018;-47
2021/11/17 08:11:10;;;;;;;2.90;1.48;;;10.00;97.30;;;;;;5012953;28;20032;-47
2021/11/17 08:13:37;;;;;;;1.23;1.13;;;10.00;97.30;;;;;;5012927;28;20029;-47
2021/11/17 08:16:04;;;;;;;2.20;1.20;;;10.00;97.30;;;;;;5011191;28;20375;-47
2021/11/17 08:18:30;;;;;;;2.20;1.40;;;10.00;97.30;;;;;;5012683;28;20400;-47
2021/11/17 08:20:56;;;;;;;2.92;1.00;;;10.00;97.30;;;;;;5012933;28;20112;-47
2021/11/17 08:23:22;;;;;;;2.17;1.30;;;10.00;97.30;;;;;;5012032;28;20683;-47
2021/11/17 08:25:48;;;;;;;4.35;1.20;;;10.00;97.30;;;;;;5012171;28;20344;-47
2021/11/17 08:28:14;;;;;;;1.67;1.20;;;10.00;97.30;;;;;;5012534;28;20460;-47
2021/11/17 08:30:41;;;;;;;0.98;0.93;;;10.00;97.40;;;;;;5012444;28;20022;-48
2021/11/17 08:33:08;;;;;;;1.40;1.20;;;10.10;97.40;;;;;;5011527;28;20058;-47
2021/11/17 08:35:35;;;;;;;2.85;1.42;;;10.00;97.30;;;;;;5011570;28;20030;-47
2021/11/17 08:38:02;;;;;;;2.28;1.13;;;10.00;97.70;;;;;;5012198;28;20025;-47
2021/11/17 08:40:31;;;;;;;1.25;0.95;;;10.00;97.30;;;;;;5012348;28;20048;-48
2021/11/17 08:42:58;;;;;;;2.17;1.00;;;10.00;97.40;;;;;;5012152;28;20030;-47
2021/11/17 08:45:25;;;;;;;2.08;1.17;;;10.10;97.40;;;;;;5011171;28;20026;-48
2021/11/17 08:47:52;;;;;;;1.15;1.00;;;10.10;97.40;;;;;;5009898;28;20382;-47
2021/11/17 08:50:21;;;;;;;0.60;0.60;;;10.10;97.40;;;;;;5012080;28;20026;-47
2021/11/17 08:52:48;;;;;;;1.38;0.90;;;10.10;97.40;;;;;;5012140;28;20022;-47
2021/11/17 08:55:14;;;;;;;1.90;0.63;;;10.00;97.40;;;;;;5010796;28;20041;-47
2021/11/17 08:57:41;;;;;;;0.80;0.80;;;10.10;97.50;;;;;;5011629;28;20029;-48
2021/11/17 09:00:10;;;;;;;1.63;0.90;;;10.10;97.40;;;;;;5012129;28;20026;-48
2021/11/17 09:02:40;;;;;;;0.82;0.82;;;10.00;97.40;;;;;;5010846;28;20033;-47
2021/11/17 09:05:11;;;;;;;1.60;0.93;;;10.00;97.40;;;;;;5010600;28;20052;-47
2021/11/17 09:07:38;;;;;;;1.33;0.98;;;10.00;97.40;;;;;;5011682;28;20020;-47
2021/11/17 09:10:05;;;;;;;3.67;1.00;;;10.10;97.40;;;;;;5011593;28;20261;-48
2021/11/17 09:12:31;;;;;;;1.70;0.82;;;10.10;97.40;;;;;;5011694;28;20052;-47
2021/11/17 09:14:57;;;;;;;1.20;1.10;;;10.10;97.40;;;;;;5011450;28;20054;-47
2021/11/17 09:17:22;;;;;;;0.73;0.60;;;10.10;97.40;;;;;;5011454;28;20045;-48
2021/11/17 09:19:48;;;;;;;1.75;1.00;;;10.10;97.40;;;;;;4992581;28;20022;-48
2021/11/17 09:22:13;;;;;;;3.30;1.00;;;10.10;97.40;;;;;;4991826;28;20042;-47
2021/11/17 09:24:39;;;;;;;2.05;1.00;;;10.10;97.40;;;;;;4994305;28;20033;-47
2021/11/17 09:27:05;;;;;;;0.75;0.75;;;10.10;97.40;;;;;;5009870;28;20036;-47
2021/11/17 09:29:33;;;;;;;0.80;0.80;;;10.10;97.40;;;;;;5010806;28;20445;-48
2021/11/17 09:31:59;;;;;;;0.68;0.68;;;10.10;97.40;;;;;;5014654;28;20040;-48
2021/11/17 09:34:25;;;;;;;3.13;1.48;;;10.10;97.40;;;;;;4998720;28;20544;-47
2021/11/17 09:36:50;;;;;;;1.25;1.02;;;10.10;97.40;;;;;;4992525;28;20022;-48
2021/11/17 09:39:16;;;;;;;2.30;1.00;;;10.10;97.40;;;;;;4996485;28;20105;-48
2021/11/17 09:41:51;;;;;;;1.10;1.05;;;10.10;97.40;;;;;;4995310;28;20037;-48
2021/11/17 09:44:29;;;;;;;1.30;0.95;;;10.10;97.40;;;;;;4994848;28;20030;-48
2021/11/17 09:46:58;;;;;;;1.70;0.93;;;10.10;97.40;;;;;;5008882;28;20517;-48
2021/11/17 09:49:42;;;;;;;2.10;1.10;;;10.10;97.40;;;;;;5010992;28;20038;-47
2021/11/17 09:52:20;;;;;;;5.78;1.08;;;10.10;97.40;;;;;;5011084;28;20437;-48
2021/11/17 09:54:56;;;;;;;1.17;0.80;;;10.10;97.50;;;;;;5010882;28;20022;-47
2021/11/17 09:57:34;;;;;;;0.50;0.50;;;10.10;97.50;;;;;;5009800;28;20265;-48
2021/11/17 10:00:36;;;;;;;3.03;0.82;;;10.20;97.50;;;;;;5010959;28;20033;-47
2021/11/17 10:03:16;;;;;;;0.70;0.65;;;10.10;97.50;;;;;;5006691;28;20050;-47
2021/11/17 10:12:18;;;;;;;1.30;0.68;;;10.20;97.50;;;;;;5011160;28;20018;-47
2021/11/17 10:14:17;;;;;;;0.65;0.60;;;10.20;97.50;;;;;;5005432;28;20046;-48
2021/11/17 10:16:43;;;;;;;1.80;0.93;;;10.20;97.50;;;;;;5010155;28;20026;-47
2021/11/17 10:19:26;;;;;;;1.17;0.90;;;10.10;97.50;;;;;;5010002;28;20034;-47
2021/11/17 10:21:56;;;;;;;0.80;0.80;;;10.20;97.50;;;;;;5010825;28;20041;-48
2021/11/17 10:24:22;;;;;;;2.58;1.23;;;10.20;97.50;;;;;;5010764;28;20025;-48
2021/11/17 10:26:51;;;;;;;1.88;0.93;;;10.10;97.40;;;;;;5009315;28;20038;-48
2021/11/17 10:29:31;;;;;;;1.63;1.17;;;10.10;97.40;;;;;;5010932;28;20036;-48
2021/11/17 10:32:20;;;;;;;1.20;1.02;;;10.10;97.40;;;;;;5013958;28;20025;-48
2021/11/17 10:34:51;;;;;;;2.08;1.10;;;10.20;97.40;;;;;;5017071;28;20425;-48
2021/11/17 10:37:26;;;;;;;1.45;0.98;;;10.20;97.40;;;;;;5029333;28;20022;-47
2021/11/17 10:39:52;;;;;;;1.33;1.08;;;10.20;97.40;;;;;;5026690;28;20057;-48
2021/11/17 10:42:21;;;;;;;1.38;1.13;;;10.20;97.30;;;;;;5009856;28;20038;-47
2021/11/17 10:44:49;;;;;;;1.83;1.10;;;10.20;97.30;;;;;;5009562;28;20089;-47
2021/11/17 10:47:31;;;;;;;2.90;1.60;;;10.20;97.30;;;;;;5008558;28;20365;-48
2021/11/17 10:50:20;;;;;;;3.30;1.52;;;10.20;97.30;;;;;;5009810;28;20064;-48
2021/11/17 10:52:55;;;;;;;1.67;1.38;;;10.20;97.40;;;;;;4992028;28;20019;-48
2021/11/17 10:55:40;;;;;;;2.22;1.33;;;10.20;97.40;;;;;;5000602;28;20128;-48
2021/11/17 10:58:10;;;;;;;1.35;1.10;;;10.20;97.30;;;;;;5009602;28;20361;-48
2021/11/17 11:01:15;;;;;;;2.17;1.27;;;10.20;97.30;;;;;;5010021;28;20475;-47
2021/11/17 11:03:57;;;;;;;1.58;0.85;;;10.20;97.30;;;;;;5004731;28;20074;-48
2021/11/17 11:06:51;;;;;;;2.08;1.33;;;10.20;97.30;;;;;;5009858;28;20041;-47
2021/11/17 11:09:28;;;;;;;2.00;0.93;;;10.20;97.30;;;;;;5009261;28;20045;-47
2021/11/17 11:11:55;;;;;;;1.73;1.10;;;10.20;97.30;;;;;;5012829;28;20030;-48
2021/11/17 11:14:30;;;;;;;2.10;1.05;;;10.20;97.40;;;;;;5013839;28;20026;-48
2021/11/17 11:17:10;;;;;;;1.25;0.98;;;10.20;97.40;;;;;;5012104;28;20030;-47
2021/11/17 11:19:36;;;;;;;;;;;10.20;97.40;;;;;;5010647;28;20109;-47
2021/11/17 11:22:14;;;;;;;0.93;0.88;;;10.20;97.40;;;;;;5012241;28;20063;-47
2021/11/17 11:24:48;;;;;;;1.00;0.90;;;10.20;97.40;;;;;;5009187;28;20030;-47
2021/11/17 11:27:24;;;;;;;2.90;1.10;;;10.20;97.40;;;;;;5006554;28;20038;-48
2021/11/17 11:30:02;;;;;;;3.25;1.25;;;10.20;97.40;;;;;;5013271;28;20025;-48
2021/11/17 11:32:30;;;;;;;1.08;0.98;;;10.20;97.40;;;;;;5012633;28;20024;-48
2021/11/17 11:34:59;;;;;;;1.10;1.00;;;10.20;97.40;;;;;;5012768;28;20469;-47
2021/11/17 11:37:25;;;;;;;1.27;1.08;;;10.20;97.30;;;;;;5013550;28;20201;-48
2021/11/17 11:40:18;;;;;;;1.17;0.95;;;10.20;97.40;;;;;;5013598;28;20415;-48
2021/11/17 11:43:24;;;;;;;1.38;1.10;;;10.20;97.30;;;;;;5012835;28;20185;-48
2021/11/17 11:45:52;;;;;;;2.20;0.98;;;10.20;97.30;;;;;;4990216;28;20030;-48
2021/11/17 11:48:23;;;;;;;2.05;1.17;;;10.20;97.30;;;;;;4984049;28;20030;-47
2021/11/17 11:50:58;;;;;;;1.20;1.08;;;10.20;97.30;;;;;;4979986;28;20027;-47
2021/11/17 11:53:46;;;;;;;1.25;0.90;;;10.20;97.20;;;;;;4980481;28;20157;-47
2021/11/17 11:56:27;;;;;;;0.80;0.80;;;10.20;97.20;;;;;;4981751;28;20034;-47
2021/11/17 11:59:03;;;;;;;1.98;1.08;;;10.20;97.30;;;;;;4979097;28;20023;-47
2021/11/17 12:01:29;;;;;;;3.58;1.33;;;10.20;97.20;;;;;;4982340;28;20030;-47
2021/11/17 12:04:02;;;;;;;2.63;1.45;;;10.20;97.20;;;;;;4979313;28;20041;-47
2021/11/17 12:06:54;;;;;;;2.75;1.00;;;10.20;97.20;;;;;;4981049;28;20070;-47
2021/11/17 12:09:33;;;;;;;0.95;0.75;;;10.20;97.20;;;;;;4984439;28;20343;-47
2021/11/17 12:12:07;;;;;;;0.93;0.90;;;10.20;97.20;;;;;;4987836;28;20026;-47
2021/11/17 12:14:49;;;;;;;1.40;1.15;;;10.20;97.20;;;;;;4989768;28;20101;-47
2021/11/17 12:17:20;;;;;;;3.20;1.42;;;10.20;97.20;;;;;;4991624;28;20113;-48
2021/11/17 12:20:15;;;;;;;3.22;1.20;;;10.20;97.30;;;;;;5014084;28;20029;-47
2021/11/17 12:23:10;;;;;;;0.80;0.80;;;10.20;97.20;;;;;;5031587;28;20041;-48
2021/11/17 12:25:37;;;;;;;1.77;1.10;;;10.30;97.20;;;;;;5030136;28;20025;-47
2021/11/17 12:28:13;;;;;;;1.45;1.20;;;10.20;97.20;;;;;;5032363;28;20025;-47
2021/11/17 12:30:49;;;;;;;3.85;1.17;;;10.30;97.20;;;;;;5032000;28;20022;-47
2021/11/17 12:33:20;;;;;;;2.97;1.20;;;10.30;97.20;;;;;;4995429;28;20560;-47
2021/11/17 12:36:04;;;;;;;3.47;1.33;;;10.20;97.20;;;;;;5011207;28;20045;-47
2021/11/17 12:38:31;;;;;;;2.25;1.27;;;10.20;97.20;;;;;;5012187;28;20029;-47
2021/11/17 12:41:03;;;;;;;3.05;1.20;;;10.30;97.20;;;;;;5011923;28;20049;-48
2021/11/17 12:43:39;;;;;;;2.45;1.10;;;10.20;97.30;;;;;;5012149;28;20453;-47
2021/11/17 12:46:10;;;;;;;1.23;1.05;;;10.20;97.50;;;;;;5011138;28;20457;-48
2021/11/17 12:48:53;;;;;;;1.40;1.08;;;10.30;97.20;;;;;;5010984;28;20030;-47
2021/11/17 12:51:25;;;;;;;1.80;1.00;;;10.20;97.20;;;;;;5012010;28;20025;-47
2021/11/17 12:53:53;;;;;;;2.15;1.33;;;10.30;97.20;;;;;;5012279;28;20057;-47
2021/11/17 12:56:39;;;;;;;3.95;1.40;;;10.30;97.20;;;;;;5010771;28;20033;-47
2021/11/17 12:59:10;;;;;;;1.75;1.40;;;10.20;97.20;;;;;;5011737;28;20030;-47
2021/11/17 13:01:39;;;;;;;1.42;1.30;;;10.30;97.20;;;;;;5011655;28;20453;-47
2021/11/17 13:04:14;;;;;;;2.10;1.17;;;10.30;97.20;;;;;;5011154;28;20033;-47
2021/11/17 13:06:45;;;;;;;1.25;0.90;;;10.20;97.10;;;;;;5010291;28;20736;-47
2021/11/17 13:09:21;;;;;;;1.67;1.10;;;10.20;97.10;;;;;;5011644;28;20033;-47
2021/11/17 13:11:46;;;;;;;2.22;1.33;;;10.30;97.10;;;;;;5011502;28;20473;-47
2021/11/17 13:14:21;;;;;;;1.25;1.08;;;10.20;97.10;;;;;;5011492;28;20057;-47
2021/11/17 13:16:49;;;;;;;3.40;1.30;;;10.30;97.10;;;;;;5010538;28;20052;-47
2021/11/17 13:19:30;;;;;;;3.28;1.70;;;10.30;97.10;;;;;;5011135;28;20052;-47
2021/11/17 13:22:04;;;;;;;1.90;1.50;;;10.20;97.10;;;;;;5011460;28;20042;-47
2021/11/17 13:24:39;;;;;;;3.97;1.73;;;10.30;97.10;;;;;;5011407;28;20030;-47
2021/11/17 13:27:07;;;;;;;1.65;1.10;;;10.30;97.10;;;;;;5010952;28;20026;-47
2021/11/17 13:29:57;;;;;;;2.30;1.73;;;10.30;97.10;;;;;;5011678;28;20087;-47
2021/11/17 13:32:38;;;;;;;2.38;1.13;;;10.30;97.10;;;;;;5010526;28;20467;-47
2021/11/17 13:35:43;;;;;;;0.90;0.77;;;10.20;97.10;;;;;;5009834;28;20061;-47
2021/11/17 13:38:23;;;;;;;3.50;1.17;;;10.30;97.10;;;;;;4988501;28;20027;-47
2021/11/17 13:40:52;;;;;;;2.70;1.05;;;10.30;97.10;;;;;;4988777;28;20073;-47
2021/11/17 13:43:19;;;;;;;1.90;1.35;;;10.20;97.10;;;;;;4988728;28;20081;-47
2021/11/17 13:45:47;;;;;;;1.15;1.05;;;10.20;97.00;;;;;;4987982;28;20057;-48
2021/11/17 13:48:15;;;;;;;0.98;0.90;;;10.30;97.10;;;;;;4987953;28;20029;-47
2021/11/17 13:50:43;;;;;;;1.38;1.10;;;10.30;97.00;;;;;;4987906;28;20050;-47
2021/11/17 13:53:11;;;;;;;2.08;1.30;;;10.20;97.00;;;;;;4988240;28;20026;-47
2021/11/17 13:55:41;;;;;;;4.97;2.20;;;10.20;97.00;;;;;;4988028;28;20035;-47
2021/11/17 13:58:08;;;;;;;3.35;1.40;;;10.30;97.00;;;;;;4987997;28;20050;-47
2021/11/17 14:00:38;;;;;;;3.08;1.50;;;10.20;97.00;;;;;;4988570;28;20030;-47
2021/11/17 14:03:04;;;;;;;;;;;10.30;97.00;;;;;;4988766;28;20108;-48
2021/11/17 14:05:30;;;;;;;5.15;2.03;;;10.30;97.00;;;;;;4987038;28;20281;-47
2021/11/17 14:07:55;;;;;;;2.10;1.70;;;10.20;97.00;;;;;;4988640;28;20037;-48
2021/11/17 14:10:22;;;;;;;4.60;2.28;;;10.20;97.00;;;;;;5000765;28;20049;-47
2021/11/17 14:12:49;;;;;;;2.67;1.85;;;10.20;97.00;;;;;;5010948;28;20052;-47
2021/11/17 14:15:16;;;;;;;2.28;1.70;;;10.20;96.90;;;;;;5009537;28;20105;-47
2021/11/17 14:17:41;;;;;;;3.10;1.63;;;10.20;97.00;;;;;;5010517;28;20030;-47
2021/11/17 14:20:09;;;;;;;3.58;1.50;;;10.30;97.00;;;;;;5010578;28;20029;-48
2021/11/17 14:22:35;;;;;;;5.38;2.20;;;10.20;96.90;;;;;;5010912;28;20069;-48
2021/11/17 14:25:08;;;;;;;2.97;1.65;;;10.20;96.90;;;;;;5010226;28;20057;-47
2021/11/17 14:27:40;;;;;;;6.88;2.40;;;10.30;96.90;;;;;;5010466;28;20033;-48
2021/11/17 14:30:23;;;;;;;3.47;1.77;;;10.20;96.90;;;;;;5010609;28;20045;-47
2021/11/17 14:32:51;;;;;;;3.75;2.08;;;10.20;96.90;;;;;;5010480;28;20026;-48
2021/11/17 14:35:18;;;;;;;3.15;1.83;;;10.20;96.90;;;;;;5009142;28;20030;-47
2021/11/17 14:37:45;;;;;;;1.17;1.13;;;10.20;96.90;;;;;;5010992;28;20038;-48
2021/11/17 14:40:13;;;;;;;4.18;1.80;;;10.20;96.90;;;;;;5010510;28;20022;-48
2021/11/17 14:42:39;;;;;;;3.08;2.10;;;10.20;96.80;;;;;;5010612;28;20492;-48
2021/11/17 14:45:14;;;;;;;4.32;1.88;;;10.20;96.80;;;;;;5010470;28;20021;-48
2021/11/17 14:47:40;;;;;;;2.08;1.40;;;10.20;96.90;;;;;;5014250;28;20036;-48
2021/11/17 14:50:07;;;;;;;4.07;1.42;;;10.20;96.80;;;;;;5013517;28;20038;-47
2021/11/17 14:52:33;;;;;;;2.20;1.30;;;10.20;96.80;;;;;;5014549;28;20022;-48
2021/11/17 14:54:59;;;;;;;1.73;1.50;;;10.20;96.80;;;;;;5013433;28;20496;-47
2021/11/17 14:57:25;;;;;;;3.22;1.50;;;10.20;96.90;;;;;;5014619;28;20337;-47
2021/11/17 14:59:53;;;;;;;4.90;1.73;;;10.20;96.80;;;;;;5014100;28;20022;-48
2021/11/17 15:02:19;;;;;;;1.92;1.40;;;10.20;97.20;;;;;;5014328;28;20034;-47
2021/11/17 15:04:46;;;;;;;2.97;1.60;;;10.20;96.80;;;;;;5013088;28;20033;-48
2021/11/17 15:07:13;;;;;;;4.70;1.90;;;10.20;96.80;;;;;;5013102;28;20026;-47
2021/11/17 15:09:39;;;;;;;7.28;2.75;;;10.20;96.80;;;;;;5013367;28;20030;-48
2021/11/17 15:12:19;;;;;;;2.75;1.50;;;10.20;96.80;;;;;;5013915;28;20032;-48
2021/11/17 15:14:46;;;;;;;5.13;1.75;;;10.20;96.80;;;;;;5013400;28;20508;-48
2021/11/17 15:17:12;;;;;;;3.47;2.08;;;10.20;96.80;;;;;;5013149;28;20041;-48
2021/11/17 15:19:38;;;;;;;1.88;1.25;;;10.20;96.80;;;;;;5012773;28;20181;-48
2021/11/17 15:22:05;;;;;;;9.30;3.40;;;10.20;96.80;;;;;;5013616;28;20076;-48
2021/11/17 15:24:32;;;;;;;5.82;1.88;;;10.20;96.80;;;;;;5013317;28;20083;-47
2021/11/17 15:27:11;;;;;;;7.30;2.95;;;10.20;96.80;;;;;;5013129;28;20112;-47
2021/11/17 15:29:39;;;;;;;3.08;1.55;;;10.20;96.80;;;;;;5013628;28;20026;-48
2021/11/17 15:32:05;;;;;;;7.60;3.25;;;10.20;96.80;;;;;;5014024;28;20032;-48
2021/11/17 15:34:31;;;;;;;9.80;3.35;;;10.20;96.80;;;;;;5012217;28;20431;-48
2021/11/17 15:36:56;;;;;;;5.72;2.33;;;10.20;96.80;;;;;;5013290;28;20029;-48
2021/11/17 15:39:22;;;;;;;6.28;2.55;;;10.20;96.80;;;;;;5004022;28;20030;-48
2021/11/17 15:41:48;;;;;;;3.17;1.67;;;10.20;96.70;;;;;;5001595;28;20042;-48
2021/11/17 15:44:14;;;;;;;1.92;1.30;;;10.20;96.70;;;;;;5013204;28;20524;-48
2021/11/17 15:46:57;;;;;;;3.13;1.73;;;10.20;96.80;;;;;;5012437;28;20034;-48
2021/11/17 15:49:24;;;;;;;2.78;1.77;;;10.10;96.80;;;;;;5012980;28;20373;-48
2021/11/17 15:51:50;;;;;;;1.35;1.20;;;10.10;96.70;;;;;;5012596;28;20452;-48
2021/11/17 15:54:16;;;;;;;11.45;2.15;;;10.20;96.70;;;;;;5012805;28;20021;-47
2021/11/17 15:56:42;;;;;;;5.05;2.40;;;10.20;96.70;;;;;;5012001;28;20022;-48